Romney, WV

8:55 PM EST on February 10, 2016 (GMT -0500)
Longview Farms | | Change Station
CLOSE
Current Station
Personal Weather Station
Location: Augusta, WV
Elevation: 1332 ft
Nearby Weather Stations

Elev 1332 ft 39.38 °N, 78.54 °W | Updated 7 seconds ago

Overcast
Overcast
18.3 °F
Feels Like 6 °F
N
11.4
Wind Variable Wind from West
Gusts 12.3 mph

Today
High -- | Low -- °F
--% Chance of Precip.
Yesterday
High -- | Low -- °F
Precip. -- in
Pressure 29.96 in
Visibility 10.0 miles
Clouds Scattered Clouds 3800 ft
Windchill 6 °F
Dew Point -2 °F
Humidity 41%
Rainfall 0.00 in
Snow Depth Not available.
7:13 AM 5:45 PM
Waxing Crescent, 8% visible
METAR KCBE 110137Z AUTO 23006G16KT 10SM SCT038 M05/M12 A2996 RMK AO1
Pressure 29.96 in
Visibility 10.0 miles
Clouds Scattered Clouds 3800 ft
Windchill 6 °F
Dew Point -2 °F
Humidity 41%
Rainfall 0.00 in
Snow Depth Not available.
7:13 AM 5:45 PM
Waxing Crescent, 8% visible
METAR KCBE 110137Z AUTO 23006G16KT 10SM SCT038 M05/M12 A2996 RMK AO1

10-Day Weather Forecast

Almanac

Astronomy

Feb. 10, 2016 Rise Set
Actual Time
Civil Twilight
Nautical Twilight
Astronomical Twilight
Moon
Length of Visible Light
Length of Day
Tomorrow will be .
, % of the Moon is Illuminated

Today's Extremes

State Highs State Lows

Community

WunderPhotos

Upload Photos

1,891,970 photos uploaded!

WunderBlog® & News

Nearby

Air Quality

  Air Quality AQ Index Pollutant
Not available.

Snow Depth

Station Depth Elevation

Earthquake Activity

City Distance Mag. Time & Date
Minimum magnitude displayed is 2.5.

Coastal Water Temperatures

Place Temperature

Stations

Nearby Weather Stations

Station Location Temp. Windchill Dew Point Humidity Wind Precip. Elev Updated Type
                   

Watches & Warnings

There are currently no watches in effect.